createdAt,value
2018-06-19T00:00:39.006Z,100.00
2018-06-19T00:03:06.059Z,100.00
2018-06-19T00:05:33.077Z,100.00
2018-06-19T00:08:01.367Z,100.00
2018-06-19T00:10:28.694Z,100.00
2018-06-19T00:12:56.859Z,100.00
2018-06-19T00:15:24.311Z,100.00
2018-06-19T00:17:55.573Z,100.00
2018-06-19T00:20:22.679Z,100.00
2018-06-19T00:22:49.718Z,100.00
2018-06-19T00:25:19.020Z,100.00
2018-06-19T00:27:46.876Z,100.00
2018-06-19T00:30:14.052Z,100.00
2018-06-19T00:32:42.114Z,100.00
2018-06-19T00:35:10.428Z,100.00
2018-06-19T00:37:38.385Z,100.00
2018-06-19T00:40:05.432Z,100.00
2018-06-19T00:42:32.449Z,100.00
2018-06-19T00:44:59.539Z,100.00
2018-06-19T00:47:26.554Z,100.00
2018-06-19T00:49:53.561Z,100.00
2018-06-19T00:52:20.557Z,100.00
2018-06-19T00:54:47.570Z,100.00
2018-06-19T00:57:14.793Z,100.00
2018-06-19T00:59:41.782Z,100.00
2018-06-19T01:02:08.931Z,100.00
2018-06-19T01:04:35.984Z,100.00
2018-06-19T01:07:03.097Z,100.00
2018-06-19T01:09:30.098Z,100.00
2018-06-19T01:11:57.128Z,100.00
2018-06-19T01:14:24.132Z,100.00
2018-06-19T01:16:51.181Z,100.00
2018-06-19T01:19:18.188Z,100.00
2018-06-19T01:21:45.242Z,100.00
2018-06-19T01:24:12.543Z,100.00
2018-06-19T01:26:39.673Z,100.00
2018-06-19T01:29:06.758Z,100.00
2018-06-19T01:31:33.991Z,100.00
2018-06-19T01:34:01.002Z,100.00
2018-06-19T01:36:28.040Z,100.00
2018-06-19T01:38:55.058Z,100.00
2018-06-19T01:41:22.084Z,100.00
2018-06-19T01:43:49.099Z,100.00
2018-06-19T01:46:16.421Z,100.00
2018-06-19T01:48:43.427Z,100.00
2018-06-19T01:51:10.446Z,100.00
2018-06-19T01:53:37.474Z,100.00
2018-06-19T01:56:04.497Z,100.00
2018-06-19T01:58:31.497Z,100.00
2018-06-19T02:00:58.533Z,100.00
2018-06-19T02:03:25.564Z,100.00
2018-06-19T02:05:52.858Z,100.00
2018-06-19T02:08:19.887Z,100.00
2018-06-19T02:10:46.882Z,100.00
2018-06-19T02:13:13.894Z,100.00
2018-06-19T02:15:40.994Z,100.00
2018-06-19T02:18:08.086Z,100.00
2018-06-19T02:20:35.102Z,100.00
2018-06-19T02:23:02.208Z,100.00
2018-06-19T02:25:29.227Z,100.00
2018-06-19T02:27:56.349Z,100.00
2018-06-19T02:30:23.366Z,100.00
2018-06-19T02:32:50.466Z,100.00
2018-06-19T02:35:17.489Z,100.00
2018-06-19T02:37:44.523Z,100.00
2018-06-19T02:40:11.533Z,100.00
2018-06-19T02:42:38.754Z,100.00
2018-06-19T02:45:05.822Z,100.00
2018-06-19T02:47:32.870Z,100.00
2018-06-19T02:49:59.916Z,100.00
2018-06-19T02:52:26.921Z,100.00
2018-06-19T02:54:53.935Z,100.00
2018-06-19T02:57:20.946Z,100.00
2018-06-19T02:59:47.937Z,100.00
2018-06-19T03:02:15.024Z,100.00
2018-06-19T03:04:42.037Z,100.00
2018-06-19T03:07:09.042Z,100.00
2018-06-19T03:09:36.054Z,100.00
2018-06-19T03:12:03.360Z,99.96
2018-06-19T03:14:30.385Z,99.53
2018-06-19T03:16:57.391Z,99.74
2018-06-19T03:19:24.436Z,99.46
2018-06-19T03:21:51.531Z,99.13
2018-06-19T03:24:18.532Z,99.05
2018-06-19T03:26:45.549Z,98.82
2018-06-19T03:29:12.820Z,99.15
2018-06-19T03:31:39.821Z,98.65
2018-06-19T03:34:06.855Z,99.04
2018-06-19T03:36:33.942Z,98.74
2018-06-19T03:39:01.040Z,98.86
2018-06-19T03:41:28.043Z,97.83
2018-06-19T03:43:55.077Z,96.64
2018-06-19T03:46:28.250Z,97.14
2018-06-19T03:48:55.318Z,97.27
2018-06-19T03:51:22.315Z,97.54
2018-06-19T03:53:49.310Z,96.26
2018-06-19T03:56:16.423Z,96.70
2018-06-19T03:58:43.506Z,95.56
2018-06-19T04:01:10.558Z,97.09
2018-06-19T04:03:37.663Z,96.29
2018-06-19T04:06:04.762Z,96.25
2018-06-19T04:08:31.770Z,96.37
2018-06-19T04:10:58.868Z,96.20
2018-06-19T04:13:25.974Z,96.73
2018-06-19T04:15:53.057Z,95.59
2018-06-19T04:18:20.090Z,95.67
2018-06-19T04:20:47.113Z,95.58
2018-06-19T04:23:14.194Z,94.66
2018-06-19T04:25:41.313Z,95.34
2018-06-19T04:28:08.394Z,95.36
2018-06-19T04:30:35.408Z,94.91
2018-06-19T04:33:02.455Z,94.97
2018-06-19T04:35:29.493Z,94.00
2018-06-19T04:37:56.594Z,93.81
2018-06-19T04:40:23.596Z,93.78
2018-06-19T04:42:50.650Z,93.57
2018-06-19T04:45:17.697Z,94.02
2018-06-19T04:47:44.787Z,94.31
2018-06-19T04:50:12.161Z,93.45
2018-06-19T04:52:39.180Z,92.82
2018-06-19T04:55:06.189Z,93.35
2018-06-19T04:57:33.216Z,93.36
2018-06-19T05:00:00.250Z,92.91
2018-06-19T05:02:27.259Z,91.98
2018-06-19T05:04:54.289Z,92.62
2018-06-19T05:07:21.337Z,91.76
2018-06-19T05:09:48.434Z,92.27
2018-06-19T05:12:15.514Z,91.44
2018-06-19T05:14:42.801Z,92.08
2018-06-19T05:17:09.845Z,91.61
2018-06-19T05:19:36.895Z,91.57
2018-06-19T05:22:03.927Z,91.06
2018-06-19T05:24:31.105Z,91.18
2018-06-19T05:26:58.106Z,90.71
2018-06-19T05:29:25.150Z,91.24
2018-06-19T05:31:52.177Z,90.60
2018-06-19T05:34:19.510Z,90.18
2018-06-19T05:36:46.542Z,90.86
2018-06-19T05:39:13.669Z,89.65
2018-06-19T05:41:40.699Z,90.11
2018-06-19T05:44:08.377Z,90.46
2018-06-19T05:46:35.874Z,89.85
2018-06-19T05:49:03.091Z,89.37
2018-06-19T05:51:30.146Z,89.79
2018-06-19T05:53:57.502Z,89.75
2018-06-19T05:56:24.514Z,89.86
2018-06-19T05:58:51.618Z,89.90
2018-06-19T06:01:18.639Z,89.90
2018-06-19T06:03:45.725Z,89.39
2018-06-19T06:06:12.750Z,89.01
2018-06-19T06:08:40.033Z,89.55
2018-06-19T06:11:07.867Z,89.66
2018-06-19T06:13:34.895Z,88.73
2018-06-19T06:16:01.934Z,87.86
2018-06-19T06:18:28.956Z,88.80
2018-06-19T06:20:56.049Z,88.33
2018-06-19T06:23:23.058Z,88.28
2018-06-19T06:25:50.225Z,88.00
2018-06-19T06:28:17.245Z,86.68
2018-06-19T06:30:44.261Z,86.92
2018-06-19T06:33:11.290Z,86.29
2018-06-19T06:35:38.311Z,86.85
2018-06-19T06:38:05.422Z,86.14
2018-06-19T06:40:32.443Z,85.66
2018-06-19T06:42:59.465Z,86.21
2018-06-19T06:45:26.522Z,85.55
2018-06-19T06:47:53.547Z,84.73
2018-06-19T06:50:20.636Z,84.35
2018-06-19T06:52:47.744Z,84.23
2018-06-19T06:55:14.859Z,84.64
2018-06-19T06:57:42.576Z,84.21
2018-06-19T07:00:09.800Z,83.65
2018-06-19T07:02:36.829Z,83.76
2018-06-19T07:05:03.897Z,82.73
2018-06-19T07:07:30.918Z,82.47
2018-06-19T07:09:57.989Z,82.76
2018-06-19T07:12:25.040Z,82.00
2018-06-19T07:14:52.087Z,83.41
2018-06-19T07:17:19.349Z,82.60
2018-06-19T07:19:46.579Z,82.48
2018-06-19T07:22:13.717Z,81.68
2018-06-19T07:24:40.763Z,82.61
2018-06-19T07:27:08.593Z,82.46
2018-06-19T07:29:36.055Z,83.68
2018-06-19T07:32:03.157Z,84.40
2018-06-19T07:34:30.282Z,83.97
2018-06-19T07:36:57.357Z,83.29
2018-06-19T07:39:24.390Z,84.62
2018-06-19T07:41:51.425Z,85.34
2018-06-19T07:44:18.502Z,86.19
2018-06-19T07:46:45.533Z,85.01
2018-06-19T07:49:12.590Z,84.89
2018-06-19T07:51:39.634Z,84.35
2018-06-19T07:54:06.689Z,84.33
2018-06-19T07:56:33.958Z,83.84
2018-06-19T07:59:01.099Z,83.18
2018-06-19T08:01:28.147Z,83.45
2018-06-19T08:03:55.202Z,83.60
2018-06-19T08:06:22.350Z,83.14
2018-06-19T08:08:49.418Z,83.88
2018-06-19T08:11:16.477Z,84.37
2018-06-19T08:13:43.493Z,84.26
2018-06-19T08:16:10.542Z,84.40
2018-06-19T08:18:37.652Z,84.25
2018-06-19T08:21:04.866Z,83.62
2018-06-19T08:23:31.909Z,84.03
2018-06-19T08:25:58.955Z,83.55
2018-06-19T08:28:26.011Z,82.65
2018-06-19T08:30:53.062Z,83.04
2018-06-19T08:33:20.134Z,82.40
2018-06-19T08:35:47.178Z,82.88
2018-06-19T08:38:14.241Z,82.90
2018-06-19T08:40:41.294Z,83.13
2018-06-19T08:43:08.323Z,83.32
2018-06-19T08:45:35.393Z,84.28
2018-06-19T08:48:02.506Z,84.02
2018-06-19T08:50:29.557Z,84.85
2018-06-19T08:52:56.637Z,84.99
2018-06-19T08:55:24.119Z,85.93
2018-06-19T08:57:51.164Z,86.02
2018-06-19T09:00:18.319Z,86.77
2018-06-19T09:02:45.565Z,87.79
2018-06-19T09:05:12.639Z,89.58
2018-06-19T09:07:39.707Z,91.30
2018-06-19T09:10:06.786Z,94.27
2018-06-19T09:12:33.826Z,95.34
2018-06-19T09:15:00.879Z,95.45
2018-06-19T09:17:27.930Z,96.02
2018-06-19T09:19:55.007Z,96.17
2018-06-19T09:22:22.043Z,95.90
2018-06-19T09:24:49.168Z,96.02
2018-06-19T09:27:16.242Z,95.22
2018-06-19T09:29:43.302Z,95.55
2018-06-19T09:32:10.383Z,95.96
2018-06-19T09:34:37.429Z,97.55
2018-06-19T09:37:04.483Z,98.02
2018-06-19T09:39:31.555Z,98.25
2018-06-19T09:41:58.684Z,98.66
2018-06-19T09:44:25.893Z,97.65
2018-06-19T09:46:52.964Z,97.92
2018-06-19T09:49:20.030Z,98.26
2018-06-19T09:51:47.169Z,98.07
2018-06-19T09:54:14.206Z,98.33
2018-06-19T09:56:41.285Z,97.33
2018-06-19T09:59:08.444Z,96.78
2018-06-19T10:01:35.455Z,96.68
2018-06-19T10:04:02.621Z,96.92
2018-06-19T10:06:29.783Z,95.46
2018-06-19T10:08:56.814Z,94.46
2018-06-19T10:11:23.904Z,95.52
2018-06-19T10:13:50.967Z,96.16
2018-06-19T10:16:18.713Z,96.95
2018-06-19T10:18:45.738Z,96.49
2018-06-19T10:21:12.810Z,97.18
2018-06-19T10:23:39.863Z,97.60
2018-06-19T10:26:06.931Z,97.15
2018-06-19T10:28:34.056Z,96.69
2018-06-19T10:31:01.057Z,96.45
2018-06-19T10:33:28.121Z,94.66
2018-06-19T10:35:55.153Z,93.56
2018-06-19T10:38:22.306Z,93.21
2018-06-19T10:40:49.375Z,92.57
2018-06-19T10:43:16.443Z,92.21
2018-06-19T10:45:43.528Z,92.41
2018-06-19T10:48:10.633Z,91.63
2018-06-19T10:50:37.723Z,91.73
2018-06-19T10:53:04.773Z,92.11
2018-06-19T10:55:31.885Z,91.60
2018-06-19T10:57:58.901Z,90.36
2018-06-19T11:00:27.969Z,90.31
2018-06-19T11:02:56.876Z,87.77
2018-06-19T11:05:28.265Z,85.75
2018-06-19T11:08:02.761Z,84.97
2018-06-19T11:10:30.509Z,83.70
2018-06-19T11:13:00.260Z,83.92
2018-06-19T11:15:27.511Z,83.60
2018-06-19T11:17:54.579Z,82.08
2018-06-19T11:20:21.869Z,82.21
2018-06-19T11:22:49.009Z,81.90
2018-06-19T11:25:16.374Z,78.63
2018-06-19T11:27:43.540Z,77.85
2018-06-19T11:30:11.029Z,78.23
2018-06-19T11:32:38.306Z,78.15
2018-06-19T11:35:05.439Z,77.94
2018-06-19T11:37:32.552Z,78.84
2018-06-19T11:39:59.650Z,76.04
2018-06-19T11:42:27.147Z,77.28
2018-06-19T11:44:54.226Z,77.57
2018-06-19T11:47:21.335Z,78.14
2018-06-19T11:49:48.544Z,77.97
2018-06-19T11:52:15.632Z,77.68
2018-06-19T11:54:42.802Z,77.92
2018-06-19T11:57:09.899Z,78.90
2018-06-19T11:59:37.026Z,79.17
2018-06-19T12:02:04.126Z,79.90
2018-06-19T12:04:31.225Z,79.99
2018-06-19T12:06:58.357Z,79.71
2018-06-19T12:09:25.518Z,79.25
2018-06-19T12:11:52.988Z,78.76
2018-06-19T12:14:20.318Z,78.37
2018-06-19T12:16:47.505Z,78.72
2018-06-19T12:19:14.649Z,78.57
2018-06-19T12:21:41.728Z,78.25
2018-06-19T12:24:08.863Z,77.24
2018-06-19T12:26:35.973Z,76.99
2018-06-19T12:29:03.307Z,77.62
2018-06-19T12:31:30.504Z,76.69
2018-06-19T12:33:57.957Z,77.06
2018-06-19T12:36:25.078Z,77.38
2018-06-19T12:38:52.343Z,77.49
2018-06-19T12:41:19.434Z,77.27
2018-06-19T12:43:46.601Z,77.23
2018-06-19T12:46:13.768Z,77.96
2018-06-19T12:48:40.977Z,77.91
2018-06-19T12:51:45.547Z,77.28
2018-06-19T12:54:53.401Z,78.04
2018-06-19T12:57:20.431Z,78.28
2018-06-19T12:59:47.703Z,78.12
2018-06-19T13:02:14.787Z,77.95
2018-06-19T13:04:53.468Z,77.65
2018-06-19T13:07:20.500Z,77.58
2018-06-19T13:09:47.936Z,77.77
2018-06-19T13:12:26.732Z,77.59
2018-06-19T13:14:53.919Z,75.74
2018-06-19T13:17:32.391Z,75.14
2018-06-19T13:20:11.004Z,73.75
2018-06-19T13:22:38.134Z,73.96
2018-06-19T13:25:05.210Z,73.21
2018-06-19T13:27:32.551Z,72.47
2018-06-19T13:30:11.307Z,70.67
2018-06-19T13:32:39.453Z,70.42
2018-06-19T13:35:06.581Z,69.27
2018-06-19T13:37:33.976Z,69.10
2018-06-19T13:41:26.107Z,68.81
2018-06-19T13:44:14.964Z,69.58
2018-06-19T13:46:42.101Z,70.25
2018-06-19T13:49:09.181Z,68.05
2018-06-19T13:51:36.305Z,69.02
2018-06-19T13:54:03.835Z,68.15
2018-06-19T13:57:41.432Z,65.70
2018-06-19T14:00:11.804Z,65.21
2018-06-19T14:02:38.921Z,67.98
2018-06-19T14:05:06.886Z,68.28
2018-06-19T14:07:40.560Z,68.52
2018-06-19T14:10:24.817Z,71.20
2018-06-19T14:12:59.617Z,70.99
2018-06-19T14:15:28.117Z,70.11
2018-06-19T14:17:55.458Z,70.21
2018-06-19T14:20:22.814Z,70.99
2018-06-19T14:22:49.999Z,70.55
2018-06-19T14:25:17.709Z,70.46
2018-06-19T14:27:45.049Z,69.62
2018-06-19T14:30:12.503Z,68.14
2018-06-19T14:32:39.728Z,70.43
2018-06-19T14:35:06.841Z,69.77
2018-06-19T14:37:33.977Z,70.20
2018-06-19T14:40:01.152Z,70.84
2018-06-19T14:42:28.190Z,72.19
2018-06-19T14:44:55.685Z,70.90
2018-06-19T14:47:22.763Z,70.07
2018-06-19T14:49:50.110Z,70.48
2018-06-19T14:52:17.191Z,71.01
2018-06-19T14:54:44.405Z,70.12
2018-06-19T14:57:11.590Z,69.75
2018-06-19T14:59:38.698Z,70.03
2018-06-19T15:02:06.203Z,70.04
2018-06-19T15:04:33.348Z,69.41
2018-06-19T15:07:00.653Z,70.34
2018-06-19T15:09:27.832Z,71.27
2018-06-19T15:11:55.148Z,70.58
2018-06-19T15:14:22.628Z,69.58
2018-06-19T15:16:49.884Z,70.99
2018-06-19T15:19:17.272Z,71.07
2018-06-19T15:21:44.396Z,71.11
2018-06-19T15:24:11.953Z,71.01
2018-06-19T15:26:38.929Z,69.15
2018-06-19T15:29:05.977Z,67.56
2018-06-19T15:31:32.981Z,67.35
2018-06-19T15:34:00.081Z,67.87
2018-06-19T15:36:27.310Z,66.56
2018-06-19T15:38:54.317Z,66.82
2018-06-19T15:41:21.759Z,66.39
2018-06-19T15:43:48.876Z,67.43
2018-06-19T15:46:15.905Z,65.39
2018-06-19T15:48:43.195Z,63.93
2018-06-19T15:51:10.215Z,65.01
2018-06-19T15:53:37.305Z,63.28
2018-06-19T15:56:04.425Z,63.61
2018-06-19T15:58:32.800Z,62.13
2018-06-19T16:00:59.895Z,60.08
2018-06-19T16:03:27.012Z,58.74
2018-06-19T16:05:54.277Z,58.62
2018-06-19T16:08:21.679Z,59.10
2018-06-19T16:10:49.444Z,58.25
2018-06-19T16:13:16.758Z,57.69
2018-06-19T16:15:44.885Z,56.45
2018-06-19T16:18:12.962Z,58.27
2018-06-19T16:20:39.985Z,58.58
2018-06-19T16:23:07.340Z,57.47
2018-06-19T16:25:35.634Z,57.16
2018-06-19T16:28:02.762Z,56.08
2018-06-19T16:30:29.894Z,58.53
2018-06-19T16:32:57.170Z,57.14
2018-06-19T16:35:24.213Z,55.50
2018-06-19T16:37:51.369Z,57.43
2018-06-19T16:40:18.777Z,58.40
2018-06-19T16:42:46.422Z,58.90
2018-06-19T16:45:13.467Z,57.64
2018-06-19T16:47:40.534Z,57.81
2018-06-19T16:50:07.870Z,59.34
2018-06-19T16:52:35.623Z,59.05
2018-06-19T16:55:03.803Z,58.42
2018-06-19T16:57:31.255Z,60.03
2018-06-19T16:59:58.355Z,59.56
2018-06-19T17:02:25.398Z,58.81
2018-06-19T17:04:52.809Z,58.45
2018-06-19T17:07:20.187Z,58.33
2018-06-19T17:09:47.429Z,58.79
2018-06-19T17:12:14.614Z,58.93
2018-06-19T17:14:42.560Z,58.97
2018-06-19T17:17:10.688Z,59.54
2018-06-19T17:19:38.614Z,59.90
2018-06-19T17:22:07.472Z,60.01
2018-06-19T17:24:34.904Z,59.84
2018-06-19T17:27:02.133Z,59.95
2018-06-19T17:29:29.158Z,60.46
2018-06-19T17:31:56.474Z,60.00
2018-06-19T17:34:23.861Z,60.51
2018-06-19T17:36:51.233Z,59.21
2018-06-19T17:39:18.609Z,60.20
2018-06-19T17:41:45.632Z,60.40
2018-06-19T17:44:12.969Z,61.72
2018-06-19T17:46:40.050Z,61.41
2018-06-19T17:49:07.257Z,60.52
2018-06-19T17:51:34.302Z,60.97
2018-06-19T17:54:01.341Z,61.67
2018-06-19T17:56:28.477Z,60.89
2018-06-19T17:58:55.486Z,61.29
2018-06-19T18:01:23.636Z,62.82
2018-06-19T18:03:50.670Z,61.67
2018-06-19T18:06:17.761Z,62.25
2018-06-19T18:08:44.813Z,61.61
2018-06-19T18:11:12.013Z,62.25
2018-06-19T18:13:39.896Z,63.03
2018-06-19T18:16:07.077Z,62.76
2018-06-19T18:18:35.002Z,63.71
2018-06-19T18:21:02.150Z,63.98
2018-06-19T18:23:29.248Z,64.31
2018-06-19T18:25:56.285Z,64.19
2018-06-19T18:28:23.317Z,64.71
2018-06-19T18:30:51.003Z,64.88
2018-06-19T18:33:18.633Z,64.98
2018-06-19T18:35:45.670Z,65.38
2018-06-19T18:38:13.496Z,65.58
2018-06-19T18:40:40.651Z,65.37
2018-06-19T18:43:08.145Z,65.55
2018-06-19T18:45:35.566Z,65.04
2018-06-19T18:48:03.304Z,66.88
2018-06-19T18:50:30.426Z,66.08
2018-06-19T18:52:57.469Z,66.46
2018-06-19T18:55:24.541Z,65.88
2018-06-19T18:57:52.126Z,65.92
2018-06-19T19:00:19.208Z,66.18
2018-06-19T19:02:46.311Z,66.98
2018-06-19T19:05:13.455Z,67.54
2018-06-19T19:07:40.694Z,66.67
2018-06-19T19:10:13.481Z,67.38
2018-06-19T19:12:40.522Z,67.39
2018-06-19T19:15:13.373Z,67.78
2018-06-19T19:17:46.712Z,67.49
2018-06-19T19:20:15.605Z,67.47
2018-06-19T19:22:42.641Z,68.14
2018-06-19T19:25:10.382Z,68.18
2018-06-19T19:27:43.677Z,69.45
2018-06-19T19:30:10.882Z,69.18
2018-06-19T19:32:38.457Z,69.72
2018-06-19T19:35:05.860Z,69.99
2018-06-19T19:37:38.684Z,70.17
2018-06-19T19:40:05.746Z,71.00
2018-06-19T19:42:32.793Z,71.59
2018-06-19T19:44:59.810Z,71.82
2018-06-19T19:47:32.765Z,72.40
2018-06-19T19:49:59.977Z,71.90
2018-06-19T19:52:27.095Z,72.75
2018-06-19T19:54:54.183Z,73.74
2018-06-19T19:57:27.290Z,73.62
2018-06-19T19:59:54.405Z,74.25
2018-06-19T20:02:21.449Z,74.74
2018-06-19T20:04:48.478Z,74.30
2018-06-19T20:07:15.524Z,74.39
2018-06-19T20:09:42.540Z,75.55
2018-06-19T20:12:09.597Z,75.35
2018-06-19T20:14:37.053Z,75.43
2018-06-19T20:17:04.101Z,75.57
2018-06-19T20:19:31.581Z,76.33
2018-06-19T20:21:58.871Z,76.29
2018-06-19T20:24:26.057Z,76.80
2018-06-19T20:26:53.417Z,76.87
2018-06-19T20:29:20.425Z,77.16
2018-06-19T20:31:47.461Z,76.83
2018-06-19T20:34:15.072Z,77.47
2018-06-19T20:36:42.104Z,78.14
2018-06-19T20:39:09.893Z,78.05
2018-06-19T20:41:36.991Z,77.96
2018-06-19T20:44:05.286Z,77.79
2018-06-19T20:46:33.305Z,78.39
2018-06-19T20:49:00.362Z,78.41
2018-06-19T20:51:27.516Z,78.76
2018-06-19T20:53:54.911Z,79.61
2018-06-19T20:56:21.932Z,79.75
2018-06-19T20:58:49.200Z,79.71
2018-06-19T21:01:16.378Z,79.34
2018-06-19T21:03:43.513Z,79.61
2018-06-19T21:06:10.746Z,80.01
2018-06-19T21:08:41.557Z,80.17
2018-06-19T21:11:10.875Z,80.29
2018-06-19T21:13:38.288Z,80.26
2018-06-19T21:16:05.598Z,80.23
2018-06-19T21:18:32.860Z,79.93
2018-06-19T21:21:00.930Z,80.16
2018-06-19T21:23:28.132Z,80.91
2018-06-19T21:25:55.457Z,80.95
2018-06-19T21:28:22.607Z,81.66
2018-06-19T21:30:49.844Z,81.44
2018-06-19T21:33:17.839Z,82.08
2018-06-19T21:35:45.090Z,82.18
2018-06-19T21:38:13.059Z,82.70
2018-06-19T21:40:40.480Z,82.48
2018-06-19T21:43:07.641Z,82.42
2018-06-19T21:45:34.788Z,83.37
2018-06-19T21:48:02.232Z,82.66
2018-06-19T21:50:29.397Z,82.46
2018-06-19T21:52:57.085Z,83.40
2018-06-19T21:55:24.229Z,84.29
2018-06-19T21:57:51.480Z,84.37
2018-06-19T22:00:18.641Z,84.52
2018-06-19T22:02:46.419Z,84.60
2018-06-19T22:05:13.564Z,83.84
2018-06-19T22:07:41.205Z,84.27
2018-06-19T22:10:08.381Z,84.61
2018-06-19T22:12:35.919Z,84.49
2018-06-19T22:15:03.426Z,84.24
2018-06-19T22:17:30.822Z,84.20
2018-06-19T22:19:59.720Z,84.59
2018-06-19T22:22:27.327Z,85.25
2018-06-19T22:24:54.547Z,85.35
2018-06-19T22:27:22.104Z,85.39
2018-06-19T22:29:49.257Z,85.45
2018-06-19T22:32:16.412Z,84.72
2018-06-19T22:34:43.589Z,85.53
2018-06-19T22:37:10.764Z,85.18
2018-06-19T22:39:37.913Z,85.14
2018-06-19T22:42:05.392Z,85.59
2018-06-19T22:44:32.552Z,86.35
2018-06-19T22:46:59.701Z,86.25
2018-06-19T22:49:27.015Z,86.70
2018-06-19T22:51:54.174Z,87.44
2018-06-19T22:54:21.321Z,87.27
2018-06-19T22:56:48.492Z,88.07
2018-06-19T22:59:16.493Z,87.02
2018-06-19T23:01:43.633Z,87.60
2018-06-19T23:04:10.839Z,86.78
2018-06-19T23:06:38.185Z,86.35
2018-06-19T23:09:06.811Z,86.33
2018-06-19T23:11:33.975Z,86.92
2018-06-19T23:14:01.148Z,88.19
2018-06-19T23:16:28.382Z,88.78
2018-06-19T23:18:56.031Z,88.96
2018-06-19T23:21:23.192Z,90.28
2018-06-19T23:23:50.345Z,89.65
2018-06-19T23:26:17.488Z,89.87
2018-06-19T23:28:45.142Z,90.00
2018-06-19T23:31:12.289Z,89.73
2018-06-19T23:33:39.461Z,90.27
2018-06-19T23:36:07.264Z,90.15
2018-06-19T23:38:34.416Z,90.18
2018-06-19T23:41:01.659Z,90.35
2018-06-19T23:43:28.949Z,90.79
2018-06-19T23:45:56.113Z,90.53
2018-06-19T23:48:23.383Z,90.92
2018-06-19T23:50:50.792Z,90.68
2018-06-19T23:53:18.037Z,90.85
2018-06-19T23:55:45.226Z,90.92
2018-06-19T23:58:12.394Z,91.34
